Time;durP1;ratioP1;P1;durP2;ratioP2;P2;SDS_P1;SDS_P2;PMS_P1;PMS_P2;Temp;Humidity;BMP_temperature;BMP_pressure;BME280_temperature;BME280_humidity;BME280_pressure;Samples;Min_cycle;Max_cycle;Signal;HPM_P1;HPM_P2
2021/12/10 00:00:24;;;;;;;88.15;42.75;;;;;;;3.30;100.00;99212.63;5012051;28;20033;-70
2021/12/10 00:02:54;;;;;;;86.43;41.88;;;;;;;3.18;100.00;99201.28;5011491;28;20148;-69
2021/12/10 00:05:30;;;;;;;77.28;40.47;;;;;;;3.23;100.00;99188.91;5010561;28;20052;-70
2021/12/10 00:07:59;;;;;;;76.55;38.25;;;;;;;3.23;100.00;99190.75;5018359;28;20749;-68
2021/12/10 00:10:32;;;;;;;85.47;40.08;;;;;;;3.16;100.00;99185.59;5013191;28;20040;-70
2021/12/10 00:12:58;;;;;;;73.60;37.47;;;;;;;3.02;100.00;99169.19;5011887;28;20021;-71
2021/12/10 00:15:29;;;;;;;66.28;36.33;;;;;;;3.03;100.00;99183.25;5010569;28;20041;-70
2021/12/10 00:17:57;;;;;;;72.75;36.00;;;;;;;3.06;100.00;99177.47;5012212;28;20037;-69
2021/12/10 00:20:29;;;;;;;65.68;35.90;;;;;;;3.02;100.00;99174.50;5011822;28;20226;-70
2021/12/10 00:23:00;;;;;;;71.32;36.22;;;;;;;3.06;100.00;99167.66;5025964;28;20052;-69
2021/12/10 00:25:34;;;;;;;59.28;34.38;;;;;;;2.95;100.00;99149.19;5016523;28;20110;-71
2021/12/10 00:28:13;;;;;;;67.32;34.58;;;;;;;2.97;100.00;99171.75;5012205;28;20160;-70
2021/12/10 00:31:15;;;;;;;74.22;35.92;;;;;;;2.94;100.00;99161.63;5011905;28;20128;-69
2021/12/10 00:33:53;;;;;;;76.25;37.20;;;;;;;2.94;100.00;99155.53;5008953;28;20236;-69
2021/12/10 00:36:19;;;;;;;75.03;37.55;;;;;;;2.93;100.00;99165.31;5020190;28;20153;-70
2021/12/10 00:38:45;;;;;;;70.13;34.95;;;;;;;2.96;100.00;99146.28;5010545;28;20120;-69
2021/12/10 00:41:13;;;;;;;70.93;36.25;;;;;;;2.85;100.00;99133.06;5009507;28;20025;-70
2021/12/10 00:43:43;;;;;;;68.38;34.80;;;;;;;2.96;100.00;99130.41;5010014;28;20599;-69
2021/12/10 00:46:11;;;;;;;70.20;34.75;;;;;;;2.88;100.00;99120.19;5011006;28;20092;-69
2021/12/10 00:48:37;;;;;;;72.35;33.08;;;;;;;2.88;100.00;99127.31;5023902;28;20191;-70
2021/12/10 00:51:07;;;;;;;60.90;31.58;;;;;;;2.89;100.00;99111.19;5025973;28;20033;-70
2021/12/10 00:53:33;;;;;;;66.35;32.42;;;;;;;2.86;100.00;99106.38;5004039;28;20025;-69
2021/12/10 00:56:01;;;;;;;62.60;32.65;;;;;;;2.77;100.00;99123.69;5012774;28;22080;-70
2021/12/10 00:58:27;;;;;;;66.13;34.85;;;;;;;2.81;100.00;99108.91;5011059;28;20371;-69
2021/12/10 01:00:58;;;;;;;63.70;32.10;;;;;;;2.79;100.00;99095.13;5007772;28;20044;-69
2021/12/10 01:03:31;;;;;;;68.97;31.80;;;;;;;2.84;100.00;99092.53;5009525;28;20039;-69
2021/12/10 01:06:03;;;;;;;59.10;31.88;;;;;;;2.79;100.00;99095.13;5007839;28;20518;-69
2021/12/10 01:08:32;;;;;;;67.03;34.20;;;;;;;2.75;100.00;99078.09;5010826;28;20037;-69
2021/12/10 01:11:03;;;;;;;66.43;33.45;;;;;;;2.87;100.00;99083.34;5016620;28;20049;-70
2021/12/10 01:13:33;;;;;;;66.47;32.30;;;;;;;2.86;100.00;99084.38;4984248;28;20036;-70
2021/12/10 01:26:59;;;;;;;56.53;28.38;;;;;;;2.92;100.00;99067.53;5009848;28;20106;-70
2021/12/10 01:29:31;;;;;;;56.75;29.65;;;;;;;2.90;100.00;99053.72;5009616;28;20036;-70
2021/12/10 01:32:05;;;;;;;55.17;28.77;;;;;;;2.88;100.00;99048.66;5010789;28;20604;-69
2021/12/10 01:34:32;;;;;;;50.85;27.80;;;;;;;2.86;100.00;99047.31;5016308;28;20123;-70
2021/12/10 01:36:58;;;;;;;52.42;27.13;;;;;;;2.84;100.00;99044.88;5017952;28;20037;-70
2021/12/10 01:39:27;;;;;;;59.10;29.23;;;;;;;2.87;100.00;99047.06;5008942;28;20540;-69
2021/12/10 01:42:01;;;;;;;45.75;27.23;;;;;;;2.81;100.00;99045.34;5018695;28;20059;-69
2021/12/10 01:44:31;;;;;;;52.90;29.35;;;;;;;2.86;100.00;99034.88;5002459;28;20164;-68
2021/12/10 01:47:00;;;;;;;54.65;28.25;;;;;;;2.81;100.00;99013.56;5009694;28;20377;-69
2021/12/10 01:49:28;;;;;;;57.75;30.27;;;;;;;2.93;100.00;99019.63;5006483;28;20103;-69
2021/12/10 01:51:54;;;;;;;64.72;33.75;;;;;;;2.88;100.00;99011.59;5008649;28;20380;-69
2021/12/10 01:54:26;;;;;;;77.50;36.75;;;;;;;2.84;100.00;99017.59;5008020;28;20067;-69
2021/12/10 01:56:56;;;;;;;63.95;33.33;;;;;;;2.81;100.00;99009.09;5008686;28;20420;-70
2021/12/10 01:59:25;;;;;;;63.92;32.58;;;;;;;2.77;100.00;98994.72;5016319;28;20327;-68
2021/12/10 02:01:54;;;;;;;57.75;30.45;;;;;;;2.76;100.00;99005.53;5014505;28;20667;-69
2021/12/10 02:04:24;;;;;;;58.33;31.70;;;;;;;2.79;100.00;99008.53;5014348;28;20041;-69
2021/12/10 02:06:50;;;;;;;60.30;30.23;;;;;;;2.74;100.00;98992.53;5009220;28;20033;-69
2021/12/10 02:09:16;;;;;;;49.92;28.85;;;;;;;2.69;100.00;98989.03;5010074;28;20259;-69
2021/12/10 02:11:42;;;;;;;50.03;28.58;;;;;;;2.70;100.00;98986.13;5008205;28;20061;-69
2021/12/10 02:14:07;;;;;;;51.03;29.70;;;;;;;2.62;100.00;98989.16;5009347;28;20578;-70
2021/12/10 02:16:37;;;;;;;50.90;29.15;;;;;;;2.62;100.00;98983.06;5009869;28;20037;-69
2021/12/10 02:19:09;;;;;;;51.25;28.23;;;;;;;2.60;100.00;98979.84;5007225;28;20087;-70
2021/12/10 02:21:39;;;;;;;47.05;26.95;;;;;;;2.63;100.00;98982.03;4998831;28;20572;-69
2021/12/10 02:24:12;;;;;;;54.83;28.15;;;;;;;2.64;100.00;98975.69;5008015;28;20400;-70
2021/12/10 02:26:44;;;;;;;50.33;28.33;;;;;;;2.52;100.00;98958.03;5009416;28;20392;-70
2021/12/10 02:29:10;;;;;;;;;;;;;;;2.57;100.00;98954.66;5008492;28;20044;-70
2021/12/10 02:31:39;;;;;;;49.08;26.40;;;;;;;2.56;100.00;98953.06;5008505;28;19997;-69
2021/12/10 02:34:05;;;;;;;51.90;27.52;;;;;;;2.55;100.00;98958.59;5009052;28;20052;-70
2021/12/10 02:36:31;;;;;;;50.83;25.92;;;;;;;2.58;100.00;98955.44;5024226;28;20033;-69
2021/12/10 02:38:58;;;;;;;47.50;24.40;;;;;;;2.54;100.00;98952.50;5013700;28;20040;-69
2021/12/10 02:41:29;;;;;;;45.85;23.70;;;;;;;2.61;100.00;98949.69;5007940;28;20084;-69
2021/12/10 02:43:55;;;;;;;45.40;24.83;;;;;;;2.52;100.00;98946.63;5011004;28;20056;-70
2021/12/10 02:46:22;;;;;;;40.45;22.42;;;;;;;2.51;100.00;98937.88;5008632;28;20138;-69
2021/12/10 02:48:51;;;;;;;45.50;23.40;;;;;;;2.49;100.00;98926.72;5007833;28;20486;-76
2021/12/10 02:51:16;;;;;;;51.30;23.63;;;;;;;2.42;100.00;98920.78;4981902;28;20300;-75
2021/12/10 02:53:45;;;;;;;38.00;21.48;;;;;;;2.47;100.00;98922.72;5011705;28;20069;-73
2021/12/10 02:56:17;;;;;;;38.90;22.52;;;;;;;2.48;100.00;98924.31;5016018;28;20048;-75
2021/12/10 02:58:42;;;;;;;;;;;;;;;2.48;100.00;98917.19;5009867;28;20069;-75
2021/12/10 03:01:12;;;;;;;37.58;22.67;;;;;;;2.40;100.00;98916.78;5011143;28;20003;-75
2021/12/10 03:03:43;;;;;;;51.28;25.00;;;;;;;2.39;100.00;98900.09;5011136;28;20068;-75
2021/12/10 03:06:10;;;;;;;42.38;21.95;;;;;;;2.34;100.00;98907.94;5013750;28;20051;-75
2021/12/10 03:08:42;;;;;;;39.63;21.70;;;;;;;2.36;100.00;98905.88;5000837;28;20033;-76
2021/12/10 03:11:08;;;;;;;40.97;22.42;;;;;;;2.35;100.00;98890.22;5008893;28;20033;-75
2021/12/10 03:13:34;;;;;;;39.22;22.73;;;;;;;2.32;100.00;98893.34;5009960;28;20060;-74
2021/12/10 03:16:00;;;;;;;39.05;20.38;;;;;;;2.36;100.00;98883.88;5002411;28;20025;-74
2021/12/10 03:18:28;;;;;;;43.67;21.98;;;;;;;2.27;100.00;98886.13;5009134;28;20504;-75
2021/12/10 03:20:58;;;;;;;41.13;20.75;;;;;;;2.24;100.00;98879.47;5012021;28;20563;-75
2021/12/10 03:23:27;;;;;;;35.05;18.25;;;;;;;2.22;100.00;98870.97;5027684;28;20084;-75
2021/12/10 03:25:55;;;;;;;36.03;17.80;;;;;;;2.23;100.00;98869.13;5012832;28;20180;-74
2021/12/10 03:28:20;;;;;;;36.50;19.48;;;;;;;2.29;100.00;98868.19;5018949;28;20029;-75
2021/12/10 03:30:52;;;;;;;43.38;19.73;;;;;;;2.24;100.00;98857.50;5011181;28;20619;-75
2021/12/10 03:33:17;;;;;;;47.35;20.25;;;;;;;2.27;100.00;98875.53;5014592;28;20412;-76
2021/12/10 03:35:48;;;;;;;47.03;19.83;;;;;;;2.30;100.00;98853.91;5015784;28;20035;-74
2021/12/10 03:38:18;;;;;;;30.25;16.48;;;;;;;2.35;100.00;98850.53;5015287;28;20034;-75
2021/12/10 03:40:44;;;;;;;38.03;16.55;;;;;;;2.33;100.00;98850.75;5014411;28;20127;-74
2021/12/10 03:43:13;;;;;;;32.65;15.85;;;;;;;2.38;100.00;98836.81;5013230;28;20102;-74
2021/12/10 03:45:45;;;;;;;25.80;14.25;;;;;;;2.40;100.00;98832.88;5011851;28;20211;-74
2021/12/10 03:48:16;;;;;;;24.88;12.88;;;;;;;2.34;100.00;98833.03;5021134;28;20076;-75
2021/12/10 03:50:43;;;;;;;28.55;13.43;;;;;;;2.31;100.00;98807.88;5001407;28;20068;-74
2021/12/10 03:53:09;;;;;;;23.25;12.30;;;;;;;2.41;100.00;98813.31;5013903;28;20395;-74
2021/12/10 03:55:35;;;;;;;24.77;12.60;;;;;;;2.43;100.00;98815.72;5014206;28;20034;-74
2021/12/10 03:58:01;;;;;;;27.08;11.88;;;;;;;2.49;100.00;98820.03;5021393;28;20044;-75
2021/12/10 04:00:30;;;;;;;30.33;11.48;;;;;;;2.53;100.00;98821.19;5011735;28;20033;-75
2021/12/10 04:02:56;;;;;;;24.88;11.05;;;;;;;2.60;100.00;98815.69;4982685;28;20168;-75
2021/12/10 04:05:22;;;;;;;23.67;11.05;;;;;;;2.61;100.00;98812.03;5011333;28;20080;-74
2021/12/10 04:07:48;;;;;;;29.27;10.52;;;;;;;2.66;100.00;98812.88;5015501;28;20115;-74
2021/12/10 04:10:15;;;;;;;20.13;10.13;;;;;;;2.71;100.00;98812.97;5015394;28;20033;-74
2021/12/10 04:12:41;;;;;;;26.35;10.57;;;;;;;2.69;100.00;98801.03;5012730;28;20037;-75
2021/12/10 04:15:07;;;;;;;22.88;9.90;;;;;;;2.73;100.00;98799.47;5012326;28;20057;-74
2021/12/10 04:17:38;;;;;;;21.90;9.95;;;;;;;2.86;100.00;98793.84;5020711;28;20114;-75
2021/12/10 04:20:07;;;;;;;25.50;10.02;;;;;;;2.94;100.00;98795.28;5012061;28;20048;-75
2021/12/10 04:22:35;;;;;;;22.25;9.20;;;;;;;2.95;100.00;98786.28;5012086;28;20041;-74
2021/12/10 04:25:04;;;;;;;21.52;8.90;;;;;;;2.86;100.00;98782.44;5012629;28;20108;-75
2021/12/10 04:27:30;;;;;;;21.05;9.05;;;;;;;2.86;100.00;98777.97;5018728;28;20047;-75
2021/12/10 04:29:58;;;;;;;20.08;9.20;;;;;;;2.83;100.00;98767.84;5004741;28;20033;-75
2021/12/10 04:32:29;;;;;;;27.17;9.65;;;;;;;2.79;100.00;98772.03;5011687;28;20496;-75
2021/12/10 04:34:57;;;;;;;23.05;9.65;;;;;;;2.74;100.00;98748.13;5012891;28;20249;-75
2021/12/10 04:37:23;;;;;;;22.05;8.95;;;;;;;2.78;100.00;98755.34;5010539;28;20480;-75
2021/12/10 04:39:51;;;;;;;19.98;8.90;;;;;;;2.70;100.00;98750.47;5011427;28;20064;-76
2021/12/10 04:42:22;;;;;;;18.90;9.25;;;;;;;2.67;100.00;98750.94;5021337;28;20041;-75
2021/12/10 04:44:48;;;;;;;21.20;9.20;;;;;;;2.67;100.00;98755.44;5019880;28;20106;-75
2021/12/10 04:47:14;;;;;;;21.90;9.20;;;;;;;2.71;100.00;98748.63;5018687;28;21928;-75
2021/12/10 04:49:40;;;;;;;19.75;9.52;;;;;;;2.72;100.00;98751.03;5012168;28;20032;-75
2021/12/10 04:52:07;;;;;;;23.75;10.43;;;;;;;2.69;100.00;98746.22;5012172;28;20025;-75
2021/12/10 04:54:36;;;;;;;24.58;10.18;;;;;;;2.69;100.00;98737.47;5012280;28;20617;-75
2021/12/10 04:57:07;;;;;;;17.75;10.05;;;;;;;2.65;100.00;98736.34;5013256;28;20417;-75
2021/12/10 04:59:36;;;;;;;20.25;9.13;;;;;;;2.66;100.00;98746.69;5025982;28;20036;-75
2021/12/10 05:02:08;;;;;;;21.05;9.32;;;;;;;2.61;100.00;98735.25;5019883;28;20123;-75
2021/12/10 05:04:33;;;;;;;21.38;8.85;;;;;;;2.61;100.00;98727.31;5010604;28;21895;-75
2021/12/10 05:06:59;;;;;;;17.35;8.85;;;;;;;2.66;100.00;98724.72;5005470;28;20037;-75
2021/12/10 05:09:27;;;;;;;20.08;8.80;;;;;;;2.63;100.00;98726.00;5011782;28;20476;-75
2021/12/10 05:11:56;;;;;;;22.08;10.43;;;;;;;2.65;100.00;98725.75;5026761;28;20041;-75
2021/12/10 05:14:27;;;;;;;20.42;8.77;;;;;;;2.59;100.00;98724.09;5026816;28;20038;-75
2021/12/10 05:16:58;;;;;;;23.10;8.23;;;;;;;2.58;100.00;98725.13;5012426;28;20033;-75
2021/12/10 05:19:26;;;;;;;19.40;8.40;;;;;;;2.66;100.00;98720.22;5019908;28;20033;-76
2021/12/10 05:21:52;;;;;;;19.10;8.50;;;;;;;2.69;100.00;98718.94;5011955;28;20033;-75
2021/12/10 05:24:18;;;;;;;17.65;8.77;;;;;;;2.72;100.00;98711.31;5011743;28;20033;-75
2021/12/10 05:26:45;;;;;;;21.25;8.13;;;;;;;2.65;100.00;98701.94;5017338;28;20064;-75
2021/12/10 05:29:13;;;;;;;21.77;8.60;;;;;;;2.67;100.00;98703.28;4969419;28;20029;-76
2021/12/10 05:31:44;;;;;;;14.65;8.32;;;;;;;2.65;100.00;98704.59;5019292;28;20029;-75
2021/12/10 05:34:11;;;;;;;17.10;7.95;;;;;;;2.69;100.00;98703.06;5010445;28;20032;-75
2021/12/10 05:36:38;;;;;;;19.60;9.48;;;;;;;2.66;100.00;98699.03;5011573;28;20124;-75
2021/12/10 05:39:06;;;;;;;16.08;7.95;;;;;;;2.75;100.00;98702.06;4996693;28;20029;-75
2021/12/10 05:41:33;;;;;;;14.88;7.22;;;;;;;2.74;100.00;98711.06;5000340;28;20485;-76
2021/12/10 05:43:59;;;;;;;16.08;6.88;;;;;;;2.76;100.00;98706.31;5010953;28;20044;-75
2021/12/10 05:46:25;;;;;;;16.05;6.03;;;;;;;2.77;100.00;98711.38;5011322;28;20080;-75
2021/12/10 05:48:54;;;;;;;17.27;6.75;;;;;;;2.72;100.00;98705.22;5009780;28;20633;-75
2021/12/10 05:51:22;;;;;;;20.50;6.80;;;;;;;2.80;100.00;98712.72;5009538;28;20044;-76
2021/12/10 05:53:50;;;;;;;17.52;6.60;;;;;;;2.81;100.00;98709.03;5009568;28;20025;-76
2021/12/10 05:56:19;;;;;;;13.15;5.28;;;;;;;2.81;100.00;98706.38;5015288;28;20658;-76
2021/12/10 05:58:45;;;;;;;19.98;5.93;;;;;;;2.89;100.00;98697.19;4998046;28;20036;-74
2021/12/10 06:01:13;;;;;;;11.45;6.00;;;;;;;2.90;100.00;98691.66;5015014;28;20120;-74
2021/12/10 06:03:51;;;;;;;13.30;5.18;;;;;;;2.90;100.00;98706.75;5010908;28;20142;-76
2021/12/10 06:06:18;;;;;;;16.42;5.35;;;;;;;2.89;100.00;98713.88;5012750;28;20037;-76
2021/12/10 06:08:45;;;;;;;11.25;5.10;;;;;;;2.90;100.00;98715.50;5010239;28;20267;-75
2021/12/10 06:11:11;;;;;;;13.57;5.15;;;;;;;2.93;100.00;98707.06;5008335;28;20071;-74
2021/12/10 06:13:44;;;;;;;13.15;5.47;;;;;;;3.03;100.00;98728.38;5014174;28;20033;-74
2021/12/10 06:16:10;;;;;;;15.15;5.32;;;;;;;3.04;100.00;98711.41;5011842;28;20033;-74
2021/12/10 06:18:35;;;;;;;16.60;5.60;;;;;;;3.00;100.00;98714.78;5010373;28;21984;-75
2021/12/10 06:21:02;;;;;;;10.68;4.65;;;;;;;3.01;100.00;98714.56;5009511;28;20253;-75
2021/12/10 06:23:27;;;;;;;13.98;5.63;;;;;;;2.94;100.00;98715.81;5010462;28;20257;-75
2021/12/10 06:25:55;;;;;;;15.15;5.07;;;;;;;3.05;100.00;98715.66;5008848;28;20029;-75
2021/12/10 06:28:21;;;;;;;11.88;5.20;;;;;;;3.03;100.00;98703.72;5010211;28;20033;-75
2021/12/10 06:30:49;;;;;;;17.88;7.03;;;;;;;3.07;100.00;98708.25;5010322;28;20036;-75
2021/12/10 06:33:17;;;;;;;20.92;6.93;;;;;;;3.09;100.00;98706.19;5011739;28;20122;-70
2021/12/10 06:35:47;;;;;;;33.10;9.35;;;;;;;3.13;100.00;98700.38;5015344;28;20698;-69
2021/12/10 06:38:13;;;;;;;26.63;10.15;;;;;;;3.14;100.00;98713.38;4997539;28;20037;-69
2021/12/10 06:40:43;;;;;;;18.90;8.15;;;;;;;3.11;100.00;98715.72;5015182;28;20030;-69
2021/12/10 06:43:09;;;;;;;22.00;5.85;;;;;;;3.16;100.00;98708.63;5024931;28;20041;-69
2021/12/10 06:45:35;;;;;;;18.70;6.40;;;;;;;3.11;100.00;98716.53;5014942;28;22200;-70
2021/12/10 06:48:03;;;;;;;20.45;6.57;;;;;;;3.11;100.00;98718.38;4997874;28;20048;-68
2021/12/10 06:50:31;;;;;;;14.85;5.55;;;;;;;3.03;100.00;98709.03;5009050;28;20040;-69
2021/12/10 06:52:58;;;;;;;19.65;6.65;;;;;;;3.03;100.00;98724.91;5007230;28;20042;-69
2021/12/10 06:55:26;;;;;;;15.38;5.57;;;;;;;2.93;100.00;98722.13;5014224;28;20041;-69
2021/12/10 06:57:51;;;;;;;19.80;5.93;;;;;;;2.88;100.00;98725.53;5026313;28;20294;-69
2021/12/10 07:00:26;;;;;;;15.88;4.95;;;;;;;2.95;100.00;98730.66;5013114;28;20096;-68
2021/12/10 07:02:52;;;;;;;16.40;6.07;;;;;;;2.92;100.00;98729.28;5013474;28;20064;-69
2021/12/10 07:05:18;;;;;;;18.92;6.07;;;;;;;2.86;100.00;98717.03;5007799;28;20037;-69
2021/12/10 07:07:44;;;;;;;13.75;5.18;;;;;;;2.97;100.00;98732.00;5011314;28;20075;-68
2021/12/10 07:10:16;;;;;;;17.25;4.97;;;;;;;2.98;100.00;98728.28;5019674;28;20206;-69
2021/12/10 07:12:43;;;;;;;14.32;5.82;;;;;;;2.86;100.00;98738.22;5016575;28;20740;-71
2021/12/10 07:15:14;;;;;;;12.20;4.45;;;;;;;2.89;100.00;98735.06;5022609;28;20474;-70
2021/12/10 07:17:42;;;;;;;18.10;4.53;;;;;;;2.80;100.00;98733.91;5013082;28;20776;-70
2021/12/10 07:20:09;;;;;;;18.15;5.35;;;;;;;2.84;100.00;98737.66;5022871;28;20751;-71
2021/12/10 07:22:35;;;;;;;14.10;4.93;;;;;;;2.90;100.00;98728.72;5018690;28;20072;-70
2021/12/10 07:25:06;;;;;;;14.25;4.97;;;;;;;2.92;100.00;98734.56;5011387;28;20148;-68
2021/12/10 07:27:34;;;;;;;16.13;4.55;;;;;;;2.89;100.00;98740.38;5012423;28;20045;-74
2021/12/10 07:30:00;;;;;;;10.68;3.65;;;;;;;2.87;100.00;98736.38;5009454;28;20489;-69
2021/12/10 07:32:26;;;;;;;11.75;4.50;;;;;;;2.86;100.00;98734.78;5000225;28;20499;-69
2021/12/10 07:34:54;;;;;;;16.10;4.60;;;;;;;3.01;100.00;98732.28;5013248;28;20095;-70
2021/12/10 07:37:21;;;;;;;17.73;4.15;;;;;;;3.04;100.00;98748.50;5017648;28;20111;-69
2021/12/10 07:39:49;;;;;;;15.82;4.55;;;;;;;3.13;100.00;98740.13;5017057;28;20083;-70
2021/12/10 07:42:19;;;;;;;16.15;4.10;;;;;;;3.12;100.00;98741.19;5016304;28;20045;-70
2021/12/10 07:44:45;;;;;;;15.85;3.78;;;;;;;3.05;100.00;98746.66;5013434;28;20057;-70
2021/12/10 07:47:14;;;;;;;14.15;3.38;;;;;;;3.14;100.00;98744.38;5010525;28;20114;-70
2021/12/10 07:49:41;;;;;;;14.82;3.67;;;;;;;3.18;100.00;98754.25;5011979;28;20043;-70
2021/12/10 07:52:15;;;;;;;10.23;3.50;;;;;;;3.21;100.00;98751.09;5012031;28;20040;-69
2021/12/10 07:54:42;;;;;;;10.45;3.50;;;;;;;3.28;100.00;98762.28;5015428;28;20033;-69
2021/12/10 07:57:11;;;;;;;13.40;4.25;;;;;;;3.36;100.00;98755.75;5010760;28;20040;-71
2021/12/10 07:59:39;;;;;;;17.08;4.75;;;;;;;3.39;100.00;98752.59;5009820;28;20028;-71
2021/12/10 08:02:06;;;;;;;13.48;4.22;;;;;;;3.32;100.00;98752.78;5016019;28;20028;-68
2021/12/10 08:04:32;;;;;;;12.95;3.75;;;;;;;3.42;100.00;98759.25;5010886;28;20058;-69
2021/12/10 08:06:58;;;;;;;11.07;3.33;;;;;;;3.44;100.00;98767.78;5008829;28;20037;-69
2021/12/10 08:09:23;;;;;;;17.75;3.30;;;;;;;3.46;100.00;98769.13;5010725;28;20045;-69
2021/12/10 08:11:51;;;;;;;10.45;3.35;;;;;;;3.48;100.00;98764.34;5009826;28;20029;-69
2021/12/10 08:14:19;;;;;;;12.98;3.60;;;;;;;3.43;100.00;98761.66;5010718;28;20118;-73
2021/12/10 08:16:54;;;;;;;11.55;3.80;;;;;;;3.47;100.00;98770.72;5012591;28;20037;-69
2021/12/10 08:19:22;;;;;;;12.45;3.88;;;;;;;3.43;100.00;98782.88;5011805;28;20539;-70
2021/12/10 08:21:50;;;;;;;10.43;3.28;;;;;;;3.43;100.00;98772.28;5011430;28;20087;-69
2021/12/10 08:24:16;;;;;;;14.35;3.85;;;;;;;3.37;100.00;98778.56;5015786;28;20219;-70
2021/12/10 08:26:44;;;;;;;14.98;4.13;;;;;;;3.46;100.00;98789.53;5011207;28;20064;-70
2021/12/10 08:29:10;;;;;;;8.52;3.45;;;;;;;3.28;100.00;98780.06;5011284;28;20232;-69
2021/12/10 08:31:36;;;;;;;10.30;3.50;;;;;;;3.32;100.00;98778.50;5011531;28;20076;-69
2021/12/10 08:34:02;;;;;;;13.27;4.07;;;;;;;3.32;100.00;98776.63;4999410;28;20040;-69
2021/12/10 08:36:33;;;;;;;13.40;4.32;;;;;;;3.18;100.00;98779.94;5011301;28;20445;-69
2021/12/10 08:39:01;;;;;;;15.20;4.50;;;;;;;3.21;100.00;98785.53;5020756;28;20587;-69
2021/12/10 08:41:32;;;;;;;16.65;4.32;;;;;;;3.11;100.00;98781.97;5010077;28;20072;-70
2021/12/10 08:43:58;;;;;;;11.73;4.78;;;;;;;3.16;100.00;98793.41;5010921;28;20159;-69
2021/12/10 08:46:25;;;;;;;13.90;5.45;;;;;;;3.15;100.00;98796.31;4994774;28;20033;-68
2021/12/10 08:48:51;;;;;;;14.27;4.97;;;;;;;3.11;100.00;98782.78;5012226;28;20469;-69
2021/12/10 08:51:25;;;;;;;15.70;4.20;;;;;;;3.00;100.00;98787.13;5011438;28;20037;-69
2021/12/10 08:53:51;;;;;;;11.38;5.03;;;;;;;2.96;100.00;98798.47;5025876;28;20139;-69
2021/12/10 08:56:17;;;;;;;18.85;6.03;;;;;;;2.92;100.00;98797.34;5010293;28;20041;-69
2021/12/10 08:58:43;;;;;;;15.88;5.55;;;;;;;2.84;100.00;98793.25;5011476;28;20099;-69
2021/12/10 09:01:15;;;;;;;16.00;5.90;;;;;;;2.81;100.00;98797.22;5011552;28;20474;-68
2021/12/10 09:03:45;;;;;;;13.52;4.90;;;;;;;2.89;100.00;98801.28;5010986;28;20124;-69
2021/12/10 09:06:17;;;;;;;17.83;6.97;;;;;;;2.94;100.00;98805.88;5010723;28;20879;-69
2021/12/10 09:08:42;;;;;;;19.00;6.30;;;;;;;3.01;100.00;98809.94;5012157;28;20029;-69
2021/12/10 09:11:09;;;;;;;16.98;6.13;;;;;;;3.02;100.00;98811.53;5011137;28;20029;-69
2021/12/10 09:13:36;;;;;;;16.05;6.00;;;;;;;3.02;100.00;98806.25;5010693;28;20129;-69
2021/12/10 09:16:07;;;;;;;19.67;6.45;;;;;;;3.04;100.00;98820.03;5008989;28;20025;-69
2021/12/10 09:18:38;;;;;;;14.30;6.70;;;;;;;3.00;100.00;98820.75;5010434;28;20350;-69
2021/12/10 09:21:09;;;;;;;14.00;6.68;;;;;;;2.99;100.00;98808.56;5016316;28;20032;-68
2021/12/10 09:23:35;;;;;;;15.98;6.47;;;;;;;3.06;100.00;98820.59;5025404;28;20048;-68
2021/12/10 09:26:05;;;;;;;19.25;6.63;;;;;;;3.15;100.00;98833.41;5003199;28;20559;-68
2021/12/10 09:28:31;;;;;;;21.45;7.13;;;;;;;3.12;100.00;98839.22;5008288;28;20025;-68
2021/12/10 09:31:00;;;;;;;12.77;6.25;;;;;;;3.16;100.00;98835.00;5009203;28;20036;-68
2021/12/10 09:33:27;;;;;;;23.13;7.30;;;;;;;3.07;100.00;98816.88;5007332;28;20014;-69
2021/12/10 09:35:56;;;;;;;19.63;8.00;;;;;;;3.14;100.00;98839.75;5008633;28;20029;-69
2021/12/10 09:38:24;;;;;;;18.08;7.70;;;;;;;3.11;100.00;98837.63;5009659;28;20033;-69
2021/12/10 09:40:56;;;;;;;24.70;8.23;;;;;;;3.08;100.00;98842.34;5018632;28;20204;-70
2021/12/10 09:43:22;;;;;;;17.42;7.88;;;;;;;3.04;100.00;98843.88;5008780;28;20037;-69
2021/12/10 09:45:49;;;;;;;24.17;8.27;;;;;;;3.00;100.00;98848.06;5017269;28;20371;-69
2021/12/10 09:48:16;;;;;;;17.83;9.02;;;;;;;3.01;100.00;98844.38;5015791;28;20025;-69
2021/12/10 09:50:46;;;;;;;22.88;9.50;;;;;;;2.97;100.00;98848.56;5008211;28;20025;-69
2021/12/10 09:53:12;;;;;;;25.05;9.73;;;;;;;3.05;100.00;98853.44;5008262;28;20029;-69
2021/12/10 09:55:40;;;;;;;25.65;9.77;;;;;;;3.09;100.00;98857.22;4996579;28;20075;-69
2021/12/10 09:58:06;;;;;;;22.23;9.82;;;;;;;3.05;100.00;98861.38;5013658;28;20033;-69
2021/12/10 10:00:31;;;;;;;19.42;10.30;;;;;;;3.11;100.00;98866.75;5007047;28;20032;-69
2021/12/10 10:02:59;;;;;;;26.67;12.35;;;;;;;3.12;100.00;98861.22;5006104;28;20322;-70
2021/12/10 10:05:27;;;;;;;25.50;11.82;;;;;;;3.09;100.00;98865.16;5006292;28;20128;-69
2021/12/10 10:07:58;;;;;;;21.50;11.70;;;;;;;3.18;100.00;98857.59;5005795;28;20075;-69
2021/12/10 10:10:29;;;;;;;23.30;12.00;;;;;;;3.17;100.00;98857.81;5009682;28;20033;-69
2021/12/10 10:12:57;;;;;;;22.95;12.13;;;;;;;3.15;100.00;98859.91;5024614;28;20029;-69
2021/12/10 10:15:27;;;;;;;20.80;12.15;;;;;;;3.11;100.00;98853.50;5009100;28;20091;-69
2021/12/10 10:17:57;;;;;;;20.33;11.93;;;;;;;3.17;100.00;98853.31;5008070;28;20687;-70
2021/12/10 10:20:24;;;;;;;21.73;12.40;;;;;;;3.21;100.00;98845.69;4982658;28;20548;-69
2021/12/10 10:22:50;;;;;;;32.70;14.00;;;;;;;3.22;100.00;98849.94;5008412;28;20113;-68
2021/12/10 10:25:18;;;;;;;23.42;13.18;;;;;;;3.18;100.00;98854.13;5008938;28;20065;-69
2021/12/10 10:27:44;;;;;;;21.63;13.05;;;;;;;3.21;100.00;98848.34;5015067;28;20147;-68
2021/12/10 10:30:22;;;;;;;28.05;15.25;;;;;;;3.27;100.00;98848.16;5009110;28;20041;-69
2021/12/10 10:32:48;;;;;;;28.45;14.68;;;;;;;3.24;100.00;98847.84;5007589;28;20028;-68
2021/12/10 10:35:22;;;;;;;25.80;14.38;;;;;;;3.33;100.00;98862.25;5007752;28;20036;-69
2021/12/10 10:37:50;;;;;;;30.08;15.02;;;;;;;3.34;100.00;98856.72;5014949;28;20461;-69
2021/12/10 10:40:22;;;;;;;25.48;15.00;;;;;;;3.30;100.00;98860.09;5007913;28;20393;-70
2021/12/10 10:42:48;;;;;;;29.33;13.93;;;;;;;3.32;100.00;98860.66;5009659;28;20038;-69
2021/12/10 10:45:23;;;;;;;25.15;14.00;;;;;;;3.31;100.00;98867.00;5009618;28;20044;-69
2021/12/10 10:47:51;;;;;;;30.52;14.40;;;;;;;3.26;100.00;98862.47;5008858;28;20029;-69
2021/12/10 10:50:21;;;;;;;24.42;13.95;;;;;;;3.29;100.00;98866.47;5008474;28;20057;-69
2021/12/10 10:52:52;;;;;;;26.88;15.52;;;;;;;3.24;100.00;98869.03;5022648;28;20026;-69
2021/12/10 10:55:26;;;;;;;29.50;14.48;;;;;;;3.22;100.00;98865.84;5008099;28;20079;-69
2021/12/10 10:58:10;;;;;;;28.73;14.45;;;;;;;3.24;100.00;98869.03;5012369;28;20136;-69
2021/12/10 11:00:57;;;;;;;25.13;14.57;;;;;;;3.26;100.00;98864.31;5008354;28;20154;-69
2021/12/10 11:03:26;;;;;;;27.73;14.77;;;;;;;3.29;100.00;98867.25;5013594;28;20059;-69
2021/12/10 11:05:57;;;;;;;26.23;14.07;;;;;;;3.27;100.00;98874.66;5011416;28;20126;-69
2021/12/10 11:08:34;;;;;;;28.15;15.75;;;;;;;3.34;100.00;98872.63;5007308;28;20096;-68
2021/12/10 11:11:15;;;;;;;30.08;16.30;;;;;;;3.41;100.00;98875.09;5008510;28;20168;-69
2021/12/10 11:13:44;;;;;;;27.40;16.02;;;;;;;3.31;100.00;98864.34;5012830;28;20035;-69
2021/12/10 11:16:14;;;;;;;29.33;15.00;;;;;;;3.33;100.00;98872.84;5009131;28;20033;-68
2021/12/10 11:18:55;;;;;;;32.40;16.73;;;;;;;3.41;100.00;98880.38;5008315;28;20033;-68
2021/12/10 11:21:47;;;;;;;23.45;15.32;;;;;;;3.43;100.00;98867.72;5009678;28;20033;-69
2021/12/10 11:24:23;;;;;;;26.30;14.57;;;;;;;3.60;100.00;98891.50;5002981;28;20045;-69
2021/12/10 11:26:59;;;;;;;23.90;13.52;;;;;;;3.53;100.00;98894.34;5011755;28;20403;-70
2021/12/10 11:29:36;;;;;;;29.17;15.05;;;;;;;3.60;100.00;98888.84;5009240;28;20284;-70
2021/12/10 11:32:28;;;;;;;26.42;14.23;;;;;;;3.67;100.00;98884.16;5013215;28;20025;-71
2021/12/10 11:34:57;;;;;;;28.27;13.70;;;;;;;3.68;100.00;98891.06;5008951;28;20041;-69
2021/12/10 11:38:00;;;;;;;27.42;14.82;;;;;;;3.79;100.00;98899.94;5008055;28;20029;-69
2021/12/10 11:40:41;;;;;;;20.45;13.23;;;;;;;3.86;100.00;98908.50;5013577;28;20028;-69